Loiza Street, PR (00911)

5:43 PM AST on September 04, 2015 (GMT -0400)
Condado | | Change Station
CLOSE
Current Station
Personal Weather Station
Location: San Juan, SAN JUAN
Elevation: 66 ft
Nearby Weather Stations

Elev 66 ft 18.45 °N, 66.06 °W | Updated 25 seconds ago

Scattered Clouds
Scattered Clouds
83.8 °F
Feels Like 94 °F
N
5.8
Wind Variable Wind from East
Gusts 7.4 mph

Today
High -- | Low -- °F
--% Chance of Precip.
Yesterday
High -- | Low -- °F
Precip. -- in
6:10 AM 6:36 PM
Waning Gibbous, 56% visible
Pressure 29.96 in
Visibility 10.0 miles
Clouds Few 2800 ft
Scattered Clouds 4700 ft
Scattered Clouds 6000 ft
Heat Index 94 °F
Dew Point 77 °F
Humidity 81%
Rainfall 0.00 in
Snow Depth Not available.
UV 0.0 out of 12
Pollen Not available.
Air Quality Not available.
Flu Activity Not available.
METAR TJSJ 042056Z 08010KT 10SM FEW028 SCT047 SCT060 29/24 A2996 RMK AO2 SLP144 SHRA DSNT W CB DSNT W T02940244 55004
Pressure 29.96 in
Visibility 10.0 miles
Clouds Few 2800 ft
Scattered Clouds 4700 ft
Scattered Clouds 6000 ft
Heat Index 94 °F
Dew Point 77 °F
Humidity 81%
Rainfall 0.00 in
Snow Depth Not available.
UV 0.0 out of 12
Pollen Not available.
Air Quality Not available.
Flu Activity Not available.
METAR TJSJ 042056Z 08010KT 10SM FEW028 SCT047 SCT060 29/24 A2996 RMK AO2 SLP144 SHRA DSNT W CB DSNT W T02940244 55004

10-Day Weather Forecast

×

Almanac

Astronomy

Sep. 04, 2015 Rise Set
Actual Time
Civil Twilight
Nautical Twilight
Astronomical Twilight
Moon
Length of Visible Light
Length of Day
Tomorrow will be .
, % of the Moon is Illuminated

Today's Extremes

State Highs State Lows

Community

WunderPhotos

Upload Photos

1,852,297 photos uploaded!

WunderBlogs® & News

Nearby

Air Quality

  Air Quality AQ Index Pollutant
Not available.

Snow Depth

Station Depth Elevation

Earthquake Activity

City Distance Mag. Time & Date
Minimum magnitude displayed is 2.5.

Coastal Water Temperatures

Place Temperature

Stations

Nearby Weather Stations

Station Location Temp. Windchill Dew Point Humidity Wind Precip. Elev Updated Type